Airville, Pennsylvania
Current Conditions -  °F | °C
As of 3:53 AM on Wednesday 22 Oct 2014 (Local Time) from KLNS Reporting Station
Overcast Overcast  
Wind Chill: 53°   Ceiling: 8500
Heat Index: 53°   Visibility: 10mi
Dew Point: 49°   Wind: 12mph
Humidity: 86%   Direction: 20°NNE
Pressure: 29.87"   Gusts: NA
Location:  39.83°N, 76.41°W
Report Text: KLNS 220753Z AUTO 02010KT 10SM SCT026 SCT055 OVC085 12/09 A2987 RMK AO2 RAE20 SLP116 P0000 T01170094
Loading
Personal Weather Stations






























Interactive Weather Map
Tropical Storm Tracking
New forecast layout! Learn more

10-Day Weather Forecast

Advertisements
Track Severe Weather on mobile